sensor_id;sensor_type;location;lat;lon;timestamp;P1;durP1;ratioP1;P2;durP2;ratioP2
47804;SDS011;33568;45.286;9.900;2022-12-19T00:03:42;113.38;;;53.63;;
47804;SDS011;33568;45.286;9.900;2022-12-19T00:06:12;122.30;;;53.97;;
47804;SDS011;33568;45.286;9.900;2022-12-19T00:08:40;116.68;;;53.28;;
47804;SDS011;33568;45.286;9.900;2022-12-19T00:11:08;148.27;;;50.85;;
47804;SDS011;33568;45.286;9.900;2022-12-19T00:13:36;110.03;;;52.50;;
47804;SDS011;33568;45.286;9.900;2022-12-19T00:16:07;143.88;;;55.15;;
47804;SDS011;33568;45.286;9.900;2022-12-19T00:18:37;128.45;;;53.90;;
47804;SDS011;33568;45.286;9.900;2022-12-19T00:21:05;107.95;;;53.05;;
47804;SDS011;33568;45.286;9.900;2022-12-19T00:26:09;124.88;;;52.92;;
47804;SDS011;33568;45.286;9.900;2022-12-19T00:31:02;171.05;;;52.58;;
47804;SDS011;33568;45.286;9.900;2022-12-19T00:33:29;237.85;;;58.22;;
47804;SDS011;33568;45.286;9.900;2022-12-19T00:36:03;286.38;;;58.47;;
47804;SDS011;33568;45.286;9.900;2022-12-19T00:38:32;215.93;;;57.03;;
47804;SDS011;33568;45.286;9.900;2022-12-19T00:41:09;198.57;;;59.72;;
47804;SDS011;33568;45.286;9.900;2022-12-19T00:43:37;202.20;;;58.00;;
47804;SDS011;33568;45.286;9.900;2022-12-19T00:46:04;271.65;;;60.00;;
47804;SDS011;33568;45.286;9.900;2022-12-19T00:48:32;169.38;;;58.25;;
47804;SDS011;33568;45.286;9.900;2022-12-19T00:51:02;226.25;;;59.83;;
47804;SDS011;33568;45.286;9.900;2022-12-19T00:53:33;243.82;;;62.17;;
47804;SDS011;33568;45.286;9.900;2022-12-19T00:56:00;183.75;;;58.30;;
47804;SDS011;33568;45.286;9.900;2022-12-19T00:58:32;225.45;;;60.22;;
47804;SDS011;33568;45.286;9.900;2022-12-19T01:01:03;206.80;;;61.60;;
47804;SDS011;33568;45.286;9.900;2022-12-19T01:03:35;152.82;;;59.47;;
47804;SDS011;33568;45.286;9.900;2022-12-19T01:08:28;138.03;;;56.50;;
47804;SDS011;33568;45.286;9.900;2022-12-19T01:10:55;206.05;;;58.22;;
47804;SDS011;33568;45.286;9.900;2022-12-19T01:13:22;165.02;;;59.50;;
47804;SDS011;33568;45.286;9.900;2022-12-19T01:15:49;222.23;;;61.60;;
47804;SDS011;33568;45.286;9.900;2022-12-19T01:20:46;239.60;;;58.25;;
47804;SDS011;33568;45.286;9.900;2022-12-19T01:23:13;236.85;;;60.33;;
47804;SDS011;33568;45.286;9.900;2022-12-19T01:25:41;194.38;;;58.33;;
47804;SDS011;33568;45.286;9.900;2022-12-19T01:28:13;177.02;;;59.13;;
47804;SDS011;33568;45.286;9.900;2022-12-19T01:30:40;273.33;;;61.35;;
47804;SDS011;33568;45.286;9.900;2022-12-19T01:33:08;239.43;;;60.42;;
47804;SDS011;33568;45.286;9.900;2022-12-19T01:35:37;322.67;;;66.88;;
47804;SDS011;33568;45.286;9.900;2022-12-19T01:38:04;262.77;;;61.38;;
47804;SDS011;33568;45.286;9.900;2022-12-19T01:40:32;254.20;;;64.18;;
47804;SDS011;33568;45.286;9.900;2022-12-19T01:43:02;272.10;;;63.30;;
47804;SDS011;33568;45.286;9.900;2022-12-19T01:45:30;375.35;;;65.88;;
47804;SDS011;33568;45.286;9.900;2022-12-19T01:48:06;252.40;;;63.17;;
47804;SDS011;33568;45.286;9.900;2022-12-19T01:53:17;230.77;;;63.60;;
47804;SDS011;33568;45.286;9.900;2022-12-19T01:55:45;189.07;;;62.05;;
47804;SDS011;33568;45.286;9.900;2022-12-19T01:58:13;192.43;;;63.60;;
47804;SDS011;33568;45.286;9.900;2022-12-19T02:00:43;385.08;;;69.80;;
47804;SDS011;33568;45.286;9.900;2022-12-19T02:03:14;241.95;;;61.05;;
47804;SDS011;33568;45.286;9.900;2022-12-19T02:05:43;273.88;;;62.45;;
47804;SDS011;33568;45.286;9.900;2022-12-19T02:08:10;367.45;;;68.30;;
47804;SDS011;33568;45.286;9.900;2022-12-19T02:10:38;302.05;;;64.70;;
47804;SDS011;33568;45.286;9.900;2022-12-19T02:13:05;276.85;;;62.03;;
47804;SDS011;33568;45.286;9.900;2022-12-19T02:15:34;166.48;;;60.83;;
47804;SDS011;33568;45.286;9.900;2022-12-19T02:18:15;289.38;;;70.10;;
47804;SDS011;33568;45.286;9.900;2022-12-19T02:32:03;132.50;;;59.75;;
47804;SDS011;33568;45.286;9.900;2022-12-19T02:34:44;120.78;;;55.58;;
47804;SDS011;33568;45.286;9.900;2022-12-19T02:37:28;128.13;;;55.50;;
47804;SDS011;33568;45.286;9.900;2022-12-19T02:40:09;133.32;;;55.35;;
47804;SDS011;33568;45.286;9.900;2022-12-19T02:42:41;107.30;;;53.42;;
47804;SDS011;33568;45.286;9.900;2022-12-19T02:45:12;111.10;;;52.58;;
47804;SDS011;33568;45.286;9.900;2022-12-19T02:47:41;115.57;;;54.28;;
47804;SDS011;33568;45.286;9.900;2022-12-19T02:50:10;96.28;;;51.75;;
47804;SDS011;33568;45.286;9.900;2022-12-19T02:55:05;106.28;;;52.65;;
47804;SDS011;33568;45.286;9.900;2022-12-19T03:13:55;90.35;;;49.63;;
47804;SDS011;33568;45.286;9.900;2022-12-19T03:16:24;84.40;;;47.22;;
47804;SDS011;33568;45.286;9.900;2022-12-19T03:18:52;85.00;;;47.90;;
47804;SDS011;33568;45.286;9.900;2022-12-19T03:23:48;81.20;;;47.28;;
47804;SDS011;33568;45.286;9.900;2022-12-19T03:26:19;87.43;;;49.20;;
47804;SDS011;33568;45.286;9.900;2022-12-19T03:29:10;94.03;;;49.92;;
47804;SDS011;33568;45.286;9.900;2022-12-19T03:31:48;83.65;;;48.58;;
47804;SDS011;33568;45.286;9.900;2022-12-19T03:34:31;82.03;;;49.60;;
47804;SDS011;33568;45.286;9.900;2022-12-19T03:37:04;82.25;;;49.35;;
47804;SDS011;33568;45.286;9.900;2022-12-19T03:39:36;78.53;;;46.63;;
47804;SDS011;33568;45.286;9.900;2022-12-19T03:42:05;80.68;;;47.40;;
47804;SDS011;33568;45.286;9.900;2022-12-19T03:44:53;80.15;;;48.50;;
47804;SDS011;33568;45.286;9.900;2022-12-19T03:49:56;85.40;;;48.60;;
47804;SDS011;33568;45.286;9.900;2022-12-19T03:52:31;83.10;;;49.15;;
47804;SDS011;33568;45.286;9.900;2022-12-19T03:57:41;78.40;;;46.28;;
47804;SDS011;33568;45.286;9.900;2022-12-19T04:00:16;78.88;;;46.10;;
47804;SDS011;33568;45.286;9.900;2022-12-19T04:02:46;72.45;;;45.28;;
47804;SDS011;33568;45.286;9.900;2022-12-19T04:05:17;70.90;;;44.38;;
47804;SDS011;33568;45.286;9.900;2022-12-19T04:07:45;67.90;;;42.30;;
47804;SDS011;33568;45.286;9.900;2022-12-19T04:10:14;65.45;;;41.88;;
47804;SDS011;33568;45.286;9.900;2022-12-19T04:12:52;65.70;;;40.45;;
47804;SDS011;33568;45.286;9.900;2022-12-19T04:15:25;68.30;;;42.92;;
47804;SDS011;33568;45.286;9.900;2022-12-19T04:18:15;61.28;;;39.83;;
47804;SDS011;33568;45.286;9.900;2022-12-19T04:20:44;65.85;;;40.90;;
47804;SDS011;33568;45.286;9.900;2022-12-19T04:23:27;70.85;;;41.72;;
47804;SDS011;33568;45.286;9.900;2022-12-19T04:26:02;70.95;;;43.05;;
47804;SDS011;33568;45.286;9.900;2022-12-19T04:28:32;62.67;;;40.38;;
47804;SDS011;33568;45.286;9.900;2022-12-19T04:31:03;63.78;;;39.70;;
47804;SDS011;33568;45.286;9.900;2022-12-19T04:33:31;65.20;;;40.10;;
47804;SDS011;33568;45.286;9.900;2022-12-19T04:35:58;61.90;;;40.67;;
47804;SDS011;33568;45.286;9.900;2022-12-19T04:38:25;68.72;;;41.45;;
47804;SDS011;33568;45.286;9.900;2022-12-19T04:40:52;64.55;;;41.50;;
47804;SDS011;33568;45.286;9.900;2022-12-19T04:43:18;71.63;;;41.75;;
47804;SDS011;33568;45.286;9.900;2022-12-19T04:45:45;68.90;;;42.58;;
47804;SDS011;33568;45.286;9.900;2022-12-19T04:48:11;67.13;;;42.67;;
47804;SDS011;33568;45.286;9.900;2022-12-19T04:50:40;70.82;;;42.53;;
47804;SDS011;33568;45.286;9.900;2022-12-19T04:53:06;72.57;;;44.03;;
47804;SDS011;33568;45.286;9.900;2022-12-19T04:55:33;75.07;;;44.97;;
47804;SDS011;33568;45.286;9.900;2022-12-19T04:57:59;78.03;;;44.53;;
47804;SDS011;33568;45.286;9.900;2022-12-19T05:00:26;87.30;;;46.45;;
47804;SDS011;33568;45.286;9.900;2022-12-19T05:02:52;84.82;;;45.15;;
47804;SDS011;33568;45.286;9.900;2022-12-19T05:05:18;93.03;;;48.92;;
47804;SDS011;33568;45.286;9.900;2022-12-19T05:07:45;84.80;;;47.38;;
47804;SDS011;33568;45.286;9.900;2022-12-19T05:10:11;93.45;;;48.10;;
47804;SDS011;33568;45.286;9.900;2022-12-19T05:12:38;86.50;;;45.83;;
47804;SDS011;33568;45.286;9.900;2022-12-19T05:15:04;99.32;;;49.83;;
47804;SDS011;33568;45.286;9.900;2022-12-19T05:17:31;107.90;;;50.78;;
47804;SDS011;33568;45.286;9.900;2022-12-19T05:19:57;102.72;;;52.15;;
47804;SDS011;33568;45.286;9.900;2022-12-19T05:22:24;112.68;;;57.17;;
47804;SDS011;33568;45.286;9.900;2022-12-19T05:24:50;102.38;;;54.60;;
47804;SDS011;33568;45.286;9.900;2022-12-19T05:27:17;102.20;;;54.53;;
47804;SDS011;33568;45.286;9.900;2022-12-19T05:29:43;112.53;;;54.63;;
47804;SDS011;33568;45.286;9.900;2022-12-19T05:32:09;102.85;;;52.30;;
47804;SDS011;33568;45.286;9.900;2022-12-19T05:34:36;93.22;;;51.55;;
47804;SDS011;33568;45.286;9.900;2022-12-19T05:37:02;102.95;;;52.65;;
47804;SDS011;33568;45.286;9.900;2022-12-19T05:41:55;97.88;;;48.40;;
47804;SDS011;33568;45.286;9.900;2022-12-19T05:44:21;107.22;;;49.53;;
47804;SDS011;33568;45.286;9.900;2022-12-19T05:46:47;97.38;;;49.58;;
47804;SDS011;33568;45.286;9.900;2022-12-19T05:49:14;93.10;;;50.33;;
47804;SDS011;33568;45.286;9.900;2022-12-19T05:51:40;87.00;;;47.80;;
47804;SDS011;33568;45.286;9.900;2022-12-19T05:54:07;95.57;;;48.72;;
47804;SDS011;33568;45.286;9.900;2022-12-19T05:56:33;91.05;;;47.90;;
47804;SDS011;33568;45.286;9.900;2022-12-19T05:58:59;97.18;;;49.20;;
47804;SDS011;33568;45.286;9.900;2022-12-19T06:01:26;87.78;;;48.40;;
47804;SDS011;33568;45.286;9.900;2022-12-19T06:03:53;81.97;;;46.50;;
47804;SDS011;33568;45.286;9.900;2022-12-19T06:06:21;81.32;;;45.67;;
47804;SDS011;33568;45.286;9.900;2022-12-19T06:08:52;86.20;;;47.58;;
47804;SDS011;33568;45.286;9.900;2022-12-19T06:11:20;85.00;;;46.83;;
47804;SDS011;33568;45.286;9.900;2022-12-19T06:13:46;82.38;;;46.60;;
47804;SDS011;33568;45.286;9.900;2022-12-19T06:18:41;84.43;;;45.92;;
47804;SDS011;33568;45.286;9.900;2022-12-19T06:21:10;85.28;;;46.00;;
47804;SDS011;33568;45.286;9.900;2022-12-19T06:23:41;89.15;;;48.05;;
47804;SDS011;33568;45.286;9.900;2022-12-19T06:26:09;84.35;;;46.78;;
47804;SDS011;33568;45.286;9.900;2022-12-19T06:28:38;89.22;;;47.85;;
47804;SDS011;33568;45.286;9.900;2022-12-19T06:31:04;101.22;;;49.85;;
47804;SDS011;33568;45.286;9.900;2022-12-19T06:33:32;94.25;;;49.33;;
47804;SDS011;33568;45.286;9.900;2022-12-19T06:38:31;92.28;;;47.17;;
47804;SDS011;33568;45.286;9.900;2022-12-19T06:40:59;89.63;;;48.40;;
47804;SDS011;33568;45.286;9.900;2022-12-19T06:43:44;94.80;;;48.20;;
47804;SDS011;33568;45.286;9.900;2022-12-19T06:46:10;96.10;;;50.40;;
47804;SDS011;33568;45.286;9.900;2022-12-19T06:48:37;96.32;;;48.25;;
47804;SDS011;33568;45.286;9.900;2022-12-19T06:51:03;94.85;;;48.40;;
47804;SDS011;33568;45.286;9.900;2022-12-19T06:55:56;95.07;;;48.53;;
47804;SDS011;33568;45.286;9.900;2022-12-19T06:58:24;103.90;;;48.72;;
47804;SDS011;33568;45.286;9.900;2022-12-19T07:00:50;97.97;;;49.25;;
47804;SDS011;33568;45.286;9.900;2022-12-19T07:03:21;95.30;;;49.72;;
47804;SDS011;33568;45.286;9.900;2022-12-19T07:05:51;97.00;;;48.03;;
47804;SDS011;33568;45.286;9.900;2022-12-19T07:08:18;94.88;;;49.88;;
47804;SDS011;33568;45.286;9.900;2022-12-19T07:10:44;110.43;;;51.92;;
47804;SDS011;33568;45.286;9.900;2022-12-19T07:13:11;100.55;;;47.15;;
47804;SDS011;33568;45.286;9.900;2022-12-19T07:15:39;105.25;;;50.28;;
47804;SDS011;33568;45.286;9.900;2022-12-19T07:18:06;109.43;;;50.70;;
47804;SDS011;33568;45.286;9.900;2022-12-19T07:20:34;121.47;;;53.45;;
47804;SDS011;33568;45.286;9.900;2022-12-19T07:23:03;111.22;;;53.80;;
47804;SDS011;33568;45.286;9.900;2022-12-19T07:25:31;119.20;;;52.00;;
47804;SDS011;33568;45.286;9.900;2022-12-19T07:30:24;129.02;;;54.67;;
47804;SDS011;33568;45.286;9.900;2022-12-19T07:32:51;133.13;;;54.78;;
47804;SDS011;33568;45.286;9.900;2022-12-19T07:35:17;142.93;;;55.40;;
47804;SDS011;33568;45.286;9.900;2022-12-19T07:37:48;192.18;;;68.65;;
47804;SDS011;33568;45.286;9.900;2022-12-19T07:40:14;188.52;;;68.72;;
47804;SDS011;33568;45.286;9.900;2022-12-19T07:42:42;244.65;;;73.45;;
47804;SDS011;33568;45.286;9.900;2022-12-19T07:45:10;194.60;;;73.25;;
47804;SDS011;33568;45.286;9.900;2022-12-19T07:47:37;213.10;;;74.10;;
47804;SDS011;33568;45.286;9.900;2022-12-19T07:52:29;232.13;;;72.25;;
47804;SDS011;33568;45.286;9.900;2022-12-19T07:54:56;228.18;;;76.32;;
47804;SDS011;33568;45.286;9.900;2022-12-19T07:57:22;260.10;;;78.65;;
47804;SDS011;33568;45.286;9.900;2022-12-19T07:59:48;248.75;;;80.75;;
47804;SDS011;33568;45.286;9.900;2022-12-19T08:02:15;320.13;;;82.18;;
47804;SDS011;33568;45.286;9.900;2022-12-19T08:04:41;243.70;;;80.45;;
47804;SDS011;33568;45.286;9.900;2022-12-19T08:07:07;247.23;;;77.32;;
47804;SDS011;33568;45.286;9.900;2022-12-19T08:09:34;273.52;;;81.30;;
47804;SDS011;33568;45.286;9.900;2022-12-19T08:12:00;255.50;;;80.47;;
47804;SDS011;33568;45.286;9.900;2022-12-19T08:14:26;244.45;;;78.43;;
47804;SDS011;33568;45.286;9.900;2022-12-19T08:19:19;235.38;;;76.10;;
47804;SDS011;33568;45.286;9.900;2022-12-19T08:21:45;190.88;;;75.50;;
47804;SDS011;33568;45.286;9.900;2022-12-19T08:24:12;165.48;;;73.32;;
47804;SDS011;33568;45.286;9.900;2022-12-19T08:26:38;187.50;;;71.78;;
47804;SDS011;33568;45.286;9.900;2022-12-19T08:29:06;200.07;;;74.35;;
47804;SDS011;33568;45.286;9.900;2022-12-19T08:31:32;149.43;;;58.63;;
47804;SDS011;33568;45.286;9.900;2022-12-19T08:33:58;155.07;;;59.75;;
47804;SDS011;33568;45.286;9.900;2022-12-19T08:36:25;143.88;;;63.42;;
47804;SDS011;33568;45.286;9.900;2022-12-19T08:41:17;137.95;;;58.78;;
47804;SDS011;33568;45.286;9.900;2022-12-19T08:46:14;140.13;;;58.72;;
47804;SDS011;33568;45.286;9.900;2022-12-19T08:48:42;152.10;;;62.60;;
47804;SDS011;33568;45.286;9.900;2022-12-19T08:51:09;162.23;;;64.43;;
47804;SDS011;33568;45.286;9.900;2022-12-19T08:53:38;150.20;;;64.80;;
47804;SDS011;33568;45.286;9.900;2022-12-19T08:56:09;149.07;;;64.85;;
47804;SDS011;33568;45.286;9.900;2022-12-19T08:58:44;133.60;;;56.70;;
47804;SDS011;33568;45.286;9.900;2022-12-19T09:01:12;160.75;;;63.30;;
47804;SDS011;33568;45.286;9.900;2022-12-19T09:03:41;153.15;;;63.50;;
47804;SDS011;33568;45.286;9.900;2022-12-19T09:06:10;149.38;;;64.38;;
47804;SDS011;33568;45.286;9.900;2022-12-19T09:08:38;145.85;;;62.40;;
47804;SDS011;33568;45.286;9.900;2022-12-19T09:11:06;142.82;;;63.47;;
47804;SDS011;33568;45.286;9.900;2022-12-19T09:13:36;148.23;;;65.78;;
47804;SDS011;33568;45.286;9.900;2022-12-19T09:16:05;156.27;;;67.25;;
47804;SDS011;33568;45.286;9.900;2022-12-19T09:18:35;160.35;;;66.07;;
47804;SDS011;33568;45.286;9.900;2022-12-19T09:21:02;156.02;;;65.20;;
47804;SDS011;33568;45.286;9.900;2022-12-19T09:25:58;150.00;;;63.58;;
47804;SDS011;33568;45.286;9.900;2022-12-19T09:28:28;158.60;;;65.13;;
47804;SDS011;33568;45.286;9.900;2022-12-19T09:30:56;155.07;;;63.15;;
47804;SDS011;33568;45.286;9.900;2022-12-19T09:33:24;136.93;;;59.15;;
47804;SDS011;33568;45.286;9.900;2022-12-19T09:35:52;175.82;;;78.80;;
47804;SDS011;33568;45.286;9.900;2022-12-19T09:38:20;164.10;;;66.05;;
47804;SDS011;33568;45.286;9.900;2022-12-19T09:41:38;158.32;;;61.75;;
47804;SDS011;33568;45.286;9.900;2022-12-19T09:49:28;172.73;;;64.43;;
47804;SDS011;33568;45.286;9.900;2022-12-19T09:52:09;177.90;;;70.55;;
47804;SDS011;33568;45.286;9.900;2022-12-19T09:54:37;160.27;;;68.63;;
47804;SDS011;33568;45.286;9.900;2022-12-19T09:59:56;181.88;;;71.13;;
47804;SDS011;33568;45.286;9.900;2022-12-19T10:05:24;203.77;;;70.80;;
47804;SDS011;33568;45.286;9.900;2022-12-19T10:07:57;179.23;;;69.20;;
47804;SDS011;33568;45.286;9.900;2022-12-19T10:10:32;222.38;;;69.80;;
47804;SDS011;33568;45.286;9.900;2022-12-19T10:19:09;175.20;;;68.35;;
47804;SDS011;33568;45.286;9.900;2022-12-19T10:30:18;225.38;;;69.50;;
47804;SDS011;33568;45.286;9.900;2022-12-19T10:40:54;227.50;;;72.47;;
47804;SDS011;33568;45.286;9.900;2022-12-19T10:49:09;213.57;;;74.10;;
47804;SDS011;33568;45.286;9.900;2022-12-19T10:51:42;231.40;;;70.40;;
47804;SDS011;33568;45.286;9.900;2022-12-19T10:54:21;204.50;;;70.00;;
47804;SDS011;33568;45.286;9.900;2022-12-19T10:56:48;223.82;;;70.05;;
47804;SDS011;33568;45.286;9.900;2022-12-19T10:59:15;210.27;;;72.40;;
47804;SDS011;33568;45.286;9.900;2022-12-19T11:01:43;295.42;;;101.40;;
47804;SDS011;33568;45.286;9.900;2022-12-19T11:04:28;234.15;;;83.90;;
47804;SDS011;33568;45.286;9.900;2022-12-19T11:09:50;235.30;;;77.13;;
47804;SDS011;33568;45.286;9.900;2022-12-19T11:12:17;233.75;;;74.60;;
47804;SDS011;33568;45.286;9.900;2022-12-19T11:14:51;218.55;;;76.25;;
47804;SDS011;33568;45.286;9.900;2022-12-19T11:17:37;194.13;;;72.00;;
47804;SDS011;33568;45.286;9.900;2022-12-19T11:20:22;172.18;;;67.72;;
47804;SDS011;33568;45.286;9.900;2022-12-19T11:22:51;186.20;;;72.88;;
47804;SDS011;33568;45.286;9.900;2022-12-19T11:25:22;188.70;;;74.18;;
47804;SDS011;33568;45.286;9.900;2022-12-19T11:27:57;194.63;;;67.90;;
47804;SDS011;33568;45.286;9.900;2022-12-19T11:33:11;164.20;;;63.88;;
47804;SDS011;33568;45.286;9.900;2022-12-19T11:36:22;167.20;;;66.22;;
47804;SDS011;33568;45.286;9.900;2022-12-19T11:41:08;203.40;;;82.50;;
47804;SDS011;33568;45.286;9.900;2022-12-19T11:43:45;198.73;;;70.93;;
47804;SDS011;33568;45.286;9.900;2022-12-19T11:46:31;182.73;;;72.70;;
47804;SDS011;33568;45.286;9.900;2022-12-19T11:49:24;187.70;;;70.70;;
47804;SDS011;33568;45.286;9.900;2022-12-19T11:52:16;201.73;;;79.67;;
47804;SDS011;33568;45.286;9.900;2022-12-19T11:54:55;191.10;;;72.95;;
47804;SDS011;33568;45.286;9.900;2022-12-19T11:57:27;193.18;;;71.68;;
47804;SDS011;33568;45.286;9.900;2022-12-19T12:05:00;184.10;;;72.13;;
47804;SDS011;33568;45.286;9.900;2022-12-19T12:07:34;206.48;;;79.63;;
47804;SDS011;33568;45.286;9.900;2022-12-19T12:10:15;187.23;;;69.35;;
47804;SDS011;33568;45.286;9.900;2022-12-19T12:21:25;199.23;;;74.97;;
47804;SDS011;33568;45.286;9.900;2022-12-19T12:27:08;193.35;;;69.00;;
47804;SDS011;33568;45.286;9.900;2022-12-19T12:32:36;171.30;;;71.05;;
47804;SDS011;33568;45.286;9.900;2022-12-19T12:35:24;180.98;;;66.57;;
47804;SDS011;33568;45.286;9.900;2022-12-19T12:40:57;186.75;;;69.05;;
47804;SDS011;33568;45.286;9.900;2022-12-19T12:44:08;197.07;;;71.18;;
47804;SDS011;33568;45.286;9.900;2022-12-19T12:46:44;202.20;;;73.40;;
47804;SDS011;33568;45.286;9.900;2022-12-19T12:52:04;193.52;;;71.38;;
47804;SDS011;33568;45.286;9.900;2022-12-19T12:54:38;179.52;;;65.88;;
47804;SDS011;33568;45.286;9.900;2022-12-19T13:11:05;174.02;;;70.13;;
47804;SDS011;33568;45.286;9.900;2022-12-19T13:14:50;172.85;;;68.50;;
47804;SDS011;33568;45.286;9.900;2022-12-19T13:17:03;177.77;;;66.90;;
47804;SDS011;33568;45.286;9.900;2022-12-19T13:19:37;163.63;;;67.82;;
47804;SDS011;33568;45.286;9.900;2022-12-19T13:22:20;170.70;;;71.68;;
47804;SDS011;33568;45.286;9.900;2022-12-19T13:25:10;163.10;;;67.20;;
47804;SDS011;33568;45.286;9.900;2022-12-19T13:30:28;169.50;;;70.20;;
47804;SDS011;33568;45.286;9.900;2022-12-19T13:38:01;173.18;;;68.78;;
47804;SDS011;33568;45.286;9.900;2022-12-19T13:43:12;150.15;;;66.10;;
47804;SDS011;33568;45.286;9.900;2022-12-19T13:46:03;134.50;;;66.32;;
47804;SDS011;33568;45.286;9.900;2022-12-19T13:50:59;151.13;;;75.22;;
47804;SDS011;33568;45.286;9.900;2022-12-19T13:53:30;164.57;;;83.75;;
47804;SDS011;33568;45.286;9.900;2022-12-19T13:58:28;114.10;;;54.80;;
47804;SDS011;33568;45.286;9.900;2022-12-19T14:01:07;196.13;;;99.80;;
47804;SDS011;33568;45.286;9.900;2022-12-19T14:04:03;120.28;;;56.75;;
47804;SDS011;33568;45.286;9.900;2022-12-19T14:07:00;127.07;;;61.72;;
47804;SDS011;33568;45.286;9.900;2022-12-19T14:09:36;118.97;;;58.00;;
47804;SDS011;33568;45.286;9.900;2022-12-19T14:12:06;103.93;;;57.28;;
47804;SDS011;33568;45.286;9.900;2022-12-19T14:15:01;98.35;;;53.40;;
47804;SDS011;33568;45.286;9.900;2022-12-19T14:17:47;109.30;;;54.03;;
47804;SDS011;33568;45.286;9.900;2022-12-19T14:20:19;112.22;;;57.65;;
47804;SDS011;33568;45.286;9.900;2022-12-19T14:22:56;118.43;;;58.33;;
47804;SDS011;33568;45.286;9.900;2022-12-19T14:25:58;121.93;;;61.25;;
47804;SDS011;33568;45.286;9.900;2022-12-19T14:28:20;125.82;;;56.45;;
47804;SDS011;33568;45.286;9.900;2022-12-19T14:30:54;118.50;;;57.97;;
47804;SDS011;33568;45.286;9.900;2022-12-19T14:33:34;126.35;;;59.15;;
47804;SDS011;33568;45.286;9.900;2022-12-19T14:36:06;113.93;;;58.20;;
47804;SDS011;33568;45.286;9.900;2022-12-19T14:38:33;122.07;;;59.13;;
47804;SDS011;33568;45.286;9.900;2022-12-19T14:41:01;116.60;;;61.55;;
47804;SDS011;33568;45.286;9.900;2022-12-19T14:43:29;123.60;;;61.20;;
47804;SDS011;33568;45.286;9.900;2022-12-19T14:54:01;129.98;;;62.50;;
47804;SDS011;33568;45.286;9.900;2022-12-19T14:56:57;127.63;;;61.45;;
47804;SDS011;33568;45.286;9.900;2022-12-19T14:59:40;126.90;;;58.35;;
47804;SDS011;33568;45.286;9.900;2022-12-19T15:02:13;126.15;;;60.97;;
47804;SDS011;33568;45.286;9.900;2022-12-19T15:04:44;125.97;;;62.17;;
47804;SDS011;33568;45.286;9.900;2022-12-19T15:07:15;133.95;;;65.38;;
47804;SDS011;33568;45.286;9.900;2022-12-19T15:12:23;139.68;;;68.57;;
47804;SDS011;33568;45.286;9.900;2022-12-19T15:15:21;154.40;;;66.32;;
47804;SDS011;33568;45.286;9.900;2022-12-19T15:17:50;145.07;;;66.55;;
47804;SDS011;33568;45.286;9.900;2022-12-19T15:20:19;153.68;;;65.65;;
47804;SDS011;33568;45.286;9.900;2022-12-19T15:22:46;146.63;;;69.35;;
47804;SDS011;33568;45.286;9.900;2022-12-19T15:30:11;134.05;;;60.25;;
47804;SDS011;33568;45.286;9.900;2022-12-19T15:32:43;151.18;;;67.22;;
47804;SDS011;33568;45.286;9.900;2022-12-19T15:35:14;150.05;;;65.90;;
47804;SDS011;33568;45.286;9.900;2022-12-19T15:37:42;145.30;;;67.72;;
47804;SDS011;33568;45.286;9.900;2022-12-19T15:40:14;138.07;;;63.53;;
47804;SDS011;33568;45.286;9.900;2022-12-19T15:42:42;139.88;;;67.20;;
47804;SDS011;33568;45.286;9.900;2022-12-19T15:45:13;145.63;;;69.18;;
47804;SDS011;33568;45.286;9.900;2022-12-19T15:47:41;139.43;;;66.53;;
47804;SDS011;33568;45.286;9.900;2022-12-19T15:50:19;152.85;;;75.78;;
47804;SDS011;33568;45.286;9.900;2022-12-19T15:52:47;137.95;;;67.22;;
47804;SDS011;33568;45.286;9.900;2022-12-19T15:55:15;144.98;;;66.03;;
47804;SDS011;33568;45.286;9.900;2022-12-19T15:57:45;141.05;;;64.15;;
47804;SDS011;33568;45.286;9.900;2022-12-19T16:00:24;158.57;;;88.50;;
47804;SDS011;33568;45.286;9.900;2022-12-19T16:02:57;140.25;;;71.28;;
47804;SDS011;33568;45.286;9.900;2022-12-19T16:05:24;141.60;;;67.40;;
47804;SDS011;33568;45.286;9.900;2022-12-19T16:07:53;128.32;;;62.33;;
47804;SDS011;33568;45.286;9.900;2022-12-19T16:10:21;149.25;;;62.35;;
47804;SDS011;33568;45.286;9.900;2022-12-19T16:15:22;137.05;;;58.83;;
47804;SDS011;33568;45.286;9.900;2022-12-19T16:17:51;143.60;;;71.63;;
47804;SDS011;33568;45.286;9.900;2022-12-19T16:20:20;151.68;;;74.38;;
47804;SDS011;33568;45.286;9.900;2022-12-19T16:22:48;141.65;;;61.03;;
47804;SDS011;33568;45.286;9.900;2022-12-19T16:25:15;147.38;;;60.45;;
47804;SDS011;33568;45.286;9.900;2022-12-19T16:27:42;148.32;;;62.17;;
47804;SDS011;33568;45.286;9.900;2022-12-19T16:30:19;136.20;;;61.90;;
47804;SDS011;33568;45.286;9.900;2022-12-19T16:32:48;132.75;;;56.97;;
47804;SDS011;33568;45.286;9.900;2022-12-19T16:35:16;140.18;;;58.53;;
47804;SDS011;33568;45.286;9.900;2022-12-19T16:37:44;135.52;;;59.78;;
47804;SDS011;33568;45.286;9.900;2022-12-19T16:40:14;143.70;;;59.53;;
47804;SDS011;33568;45.286;9.900;2022-12-19T16:42:42;138.70;;;59.22;;
47804;SDS011;33568;45.286;9.900;2022-12-19T16:45:20;130.45;;;58.45;;
47804;SDS011;33568;45.286;9.900;2022-12-19T16:47:48;151.10;;;59.95;;
47804;SDS011;33568;45.286;9.900;2022-12-19T16:50:26;190.50;;;92.45;;
47804;SDS011;33568;45.286;9.900;2022-12-19T16:52:54;167.88;;;72.40;;
47804;SDS011;33568;45.286;9.900;2022-12-19T16:55:22;168.52;;;70.93;;
47804;SDS011;33568;45.286;9.900;2022-12-19T16:57:51;157.88;;;62.53;;
47804;SDS011;33568;45.286;9.900;2022-12-19T17:00:21;146.07;;;60.85;;
47804;SDS011;33568;45.286;9.900;2022-12-19T17:02:48;151.35;;;60.53;;
47804;SDS011;33568;45.286;9.900;2022-12-19T17:05:29;150.68;;;61.72;;
47804;SDS011;33568;45.286;9.900;2022-12-19T17:07:57;159.10;;;59.95;;
47804;SDS011;33568;45.286;9.900;2022-12-19T17:10:30;154.55;;;60.97;;
47804;SDS011;33568;45.286;9.900;2022-12-19T17:12:58;153.32;;;61.75;;
47804;SDS011;33568;45.286;9.900;2022-12-19T17:15:30;156.80;;;66.43;;
47804;SDS011;33568;45.286;9.900;2022-12-19T17:18:00;140.85;;;62.45;;
47804;SDS011;33568;45.286;9.900;2022-12-19T17:20:31;174.82;;;76.65;;
47804;SDS011;33568;45.286;9.900;2022-12-19T17:23:04;158.75;;;60.90;;
47804;SDS011;33568;45.286;9.900;2022-12-19T17:25:38;165.68;;;70.75;;
47804;SDS011;33568;45.286;9.900;2022-12-19T17:28:05;167.15;;;69.65;;
47804;SDS011;33568;45.286;9.900;2022-12-19T17:32:59;177.88;;;82.82;;
47804;SDS011;33568;45.286;9.900;2022-12-19T17:37:54;144.88;;;62.67;;
47804;SDS011;33568;45.286;9.900;2022-12-19T17:40:22;158.50;;;61.70;;
47804;SDS011;33568;45.286;9.900;2022-12-19T17:42:54;147.23;;;63.53;;
47804;SDS011;33568;45.286;9.900;2022-12-19T17:45:22;150.13;;;71.28;;
47804;SDS011;33568;45.286;9.900;2022-12-19T17:47:50;160.15;;;71.38;;
47804;SDS011;33568;45.286;9.900;2022-12-19T17:52:49;166.95;;;67.95;;
47804;SDS011;33568;45.286;9.900;2022-12-19T17:57:48;160.30;;;69.47;;
47804;SDS011;33568;45.286;9.900;2022-12-19T18:00:15;162.48;;;71.13;;
47804;SDS011;33568;45.286;9.900;2022-12-19T18:02:44;148.45;;;62.03;;